aviador You're here:

KJMR Decoded Metar

MORA in MN, USA
Report Time2017-08-22 03:15:00
UTC Time2017-08-22 03:29:32
Flight Rules vfr VFR
Wind260° at 07 kt
W.Decomp.*RWY 17: 0.4 kt HW 7.0 kt RCW
W.Rank260° ranks 19
Current wind is above 260° avg. (6.6)
Visibility9999 m
Phenomena:N/A
Clouds:Scattered 018 Hf
Broken 037 Hf
Expected CloudBase > 800 ft AGL from Temp-Dew spread
Ceiling3,700 ft
Temp18°C (ISA +5)
Dew Point16°C (88% RH)
AAT17.5°C
QNH1011 hPa
Density Alt1,916 ft
Elevation1,014 ft
Report Wrong Elevation
Raw Report
KJMR 220315Z AUTO 26007KT 10SM SCT018 BKN037 18/16 A2986 RMK
AO2=

Extra information for KJMR:More info

Metar Taf Metar & Taf Last 4 Metars F.Rules Stats Wind Profile Meteogram Temp Stats Airport Information Weather charts Add Link Nearby VenuesMetar ALERT Operation Metar Decoded Social comments

AIRNAV info for KJMR